Bellmore, Indiana
Current Conditions -  °F | °C
As of 4:35 AM on Friday 28 Nov 2014 (Local Time) from K4I7 Reporting Station
Overcast Overcast  
Wind Chill: 19°   Ceiling: 11000
Heat Index: 19°   Visibility: 10mi
Dew Point: 18°   Wind: 0mph
Humidity: 93%   Direction: NA
Pressure: 30.39"   Gusts: NA
Location:  39.76°N, 87.11°W
Report Text: K4I7 280935Z AUTO 00000KT 10SM OVC110 M07/M08 A3039 RMK AO2
Loading
Personal Weather Stations






























Interactive Weather Map New forecast layout! Learn more

10-Day Weather Forecast

Advertisements
Track Severe Weather on mobile